Time;durP1;ratioP1;P1;durP2;ratioP2;P2;SDS_P1;SDS_P2;PMS_P1;PMS_P2;Temp;Humidity;BMP_temperature;BMP_pressure;BME280_temperature;BME280_humidity;BME280_pressure;Samples;Min_cycle;Max_cycle;Signal;HPM_P1;HPM_P2
2022/08/31 00:05:22;;;;;;;6.97;1.52;;;17.20;99.90;;;;;;5020691;28;20042;-60
2022/08/31 00:07:48;;;;;;;8.57;1.50;;;17.20;99.90;;;;;;5018136;28;20046;-58
2022/08/31 00:10:17;;;;;;;4.85;1.48;;;17.20;99.90;;;;;;5035222;28;20068;-60
2022/08/31 00:12:46;;;;;;;9.10;3.10;;;17.20;99.90;;;;;;5033418;28;20036;-60
2022/08/31 00:15:16;;;;;;;3.47;1.27;;;17.10;99.90;;;;;;5018696;28;20057;-62
2022/08/31 00:17:43;;;;;;;3.75;1.30;;;17.20;99.90;;;;;;5035113;28;20050;-59
2022/08/31 00:20:11;;;;;;;6.22;2.22;;;17.10;99.90;;;;;;5036007;28;20037;-58
2022/08/31 00:22:58;;;;;;;4.30;1.05;;;17.10;99.90;;;;;;5034909;28;20080;-59
2022/08/31 00:25:25;;;;;;;5.40;1.45;;;17.10;99.90;;;;;;5035418;28;20046;-59
2022/08/31 00:27:54;;;;;;;5.63;1.38;;;17.00;99.90;;;;;;5018155;28;20050;-60
2022/08/31 00:30:21;;;;;;;5.95;1.58;;;17.10;99.90;;;;;;5018108;28;20042;-59
2022/08/31 00:32:48;;;;;;;5.07;1.17;;;17.00;99.90;;;;;;5035232;28;20037;-59
2022/08/31 00:35:15;;;;;;;6.38;1.45;;;17.00;99.90;;;;;;5018576;28;20052;-60
2022/08/31 00:37:42;;;;;;;8.75;2.20;;;17.00;99.90;;;;;;5034784;28;20054;-59
2022/08/31 00:40:09;;;;;;;3.38;1.30;;;17.00;99.90;;;;;;5017852;28;20115;-59
2022/08/31 00:42:36;;;;;;;7.32;3.03;;;17.00;99.90;;;;;;5034282;28;20054;-60
2022/08/31 00:45:03;;;;;;;4.55;1.45;;;17.00;99.90;;;;;;5035434;28;20046;-60
2022/08/31 00:47:30;;;;;;;5.15;1.30;;;16.90;99.90;;;;;;5034575;28;20042;-62
2022/08/31 00:49:57;;;;;;;5.13;1.10;;;17.00;99.90;;;;;;5035203;28;20056;-60
2022/08/31 00:52:26;;;;;;;5.68;1.40;;;16.90;99.90;;;;;;4654065;28;10000024;-59
2022/08/31 00:55:12;;;;;;;6.22;1.17;;;16.90;99.90;;;;;;5017646;28;20840;-60
2022/08/31 00:57:40;;;;;;;2.80;1.38;;;16.90;99.90;;;;;;5033752;28;20084;-60
2022/08/31 01:00:10;;;;;;;5.85;1.60;;;16.90;99.90;;;;;;5001725;28;20042;-60
2022/08/31 01:02:36;;;;;;;6.07;1.75;;;16.80;99.90;;;;;;5034355;28;20038;-60
2022/08/31 01:05:04;;;;;;;3.63;1.35;;;16.80;99.90;;;;;;5017701;28;20046;-60
2022/08/31 01:07:31;;;;;;;6.38;0.98;;;16.80;99.90;;;;;;5034024;28;20045;-60
2022/08/31 01:09:58;;;;;;;4.43;1.50;;;16.80;99.90;;;;;;5017766;28;20029;-60
2022/08/31 01:12:25;;;;;;;4.78;1.58;;;16.70;99.90;;;;;;5001423;28;20054;-60
2022/08/31 01:14:52;;;;;;;9.95;1.42;;;16.70;99.90;;;;;;5033877;28;20061;-59
2022/08/31 01:17:19;;;;;;;3.72;1.02;;;16.70;99.90;;;;;;5034707;28;20061;-59
2022/08/31 01:19:52;;;;;;;3.47;1.25;;;16.70;99.90;;;;;;5016742;28;20053;-60
2022/08/31 01:22:41;;;;;;;6.57;1.38;;;16.70;99.90;;;;;;5017974;28;20030;-60
2022/08/31 01:25:08;;;;;;;8.82;1.50;;;16.70;99.90;;;;;;5032905;28;20041;-59
2022/08/31 01:27:35;;;;;;;6.25;2.22;;;16.60;99.90;;;;;;5001524;28;20069;-60
2022/08/31 01:30:04;;;;;;;5.10;1.60;;;16.60;99.90;;;;;;5000972;28;20409;-59
2022/08/31 01:32:31;;;;;;;3.67;1.75;;;16.60;99.90;;;;;;5017308;28;20046;-60
2022/08/31 01:34:58;;;;;;;5.28;1.48;;;16.50;99.90;;;;;;5033828;28;20046;-60
2022/08/31 01:37:25;;;;;;;3.35;1.13;;;16.50;99.90;;;;;;5034637;28;20049;-60
2022/08/31 01:39:55;;;;;;;11.80;3.90;;;16.50;99.90;;;;;;5017737;28;20041;-60
2022/08/31 01:42:22;;;;;;;3.13;1.55;;;16.50;99.90;;;;;;5033906;28;20038;-60
2022/08/31 01:44:58;;;;;;;8.02;1.25;;;16.50;99.90;;;;;;5033766;28;20109;-59
2022/08/31 01:47:25;;;;;;;9.20;1.48;;;16.40;99.90;;;;;;5034143;28;20025;-58
2022/08/31 01:49:52;;;;;;;2.38;1.20;;;16.40;99.90;;;;;;5034419;28;20069;-59
2022/08/31 01:52:25;;;;;;;5.78;1.45;;;16.40;99.90;;;;;;5017858;28;20046;-58
2022/08/31 01:54:54;;;;;;;3.40;1.08;;;16.40;99.90;;;;;;5017817;28;20038;-59
2022/08/31 01:57:21;;;;;;;3.92;1.23;;;16.40;99.90;;;;;;5001070;28;20069;-58
2022/08/31 02:00:01;;;;;;;3.90;1.35;;;16.30;99.90;;;;;;5026032;28;20124;-58
2022/08/31 02:02:28;;;;;;;10.98;1.77;;;16.30;99.90;;;;;;5036486;28;20049;-59
2022/08/31 02:04:55;;;;;;;4.65;1.95;;;16.30;99.90;;;;;;5025759;28;20145;-59
2022/08/31 02:07:21;;;;;;;4.15;1.48;;;16.20;99.90;;;;;;5037343;28;20049;-59
2022/08/31 02:09:48;;;;;;;7.63;2.28;;;16.20;99.90;;;;;;4995370;28;20050;-60
2022/08/31 02:12:16;;;;;;;7.30;1.88;;;16.20;99.90;;;;;;5037500;28;20069;-59
2022/08/31 02:14:43;;;;;;;8.73;1.30;;;16.20;99.90;;;;;;5037195;28;20064;-60
2022/08/31 02:17:10;;;;;;;3.53;1.45;;;16.10;99.90;;;;;;5020814;28;20157;-59
2022/08/31 02:19:36;;;;;;;3.90;1.83;;;16.10;99.90;;;;;;5037366;28;20046;-57
2022/08/31 02:22:03;;;;;;;5.40;1.52;;;16.10;99.90;;;;;;5020298;28;20049;-58
2022/08/31 02:24:30;;;;;;;7.07;1.38;;;16.00;99.90;;;;;;5037401;28;20068;-60
2022/08/31 02:26:57;;;;;;;6.28;1.40;;;16.10;99.90;;;;;;5020338;28;20521;-62
2022/08/31 02:29:24;;;;;;;5.80;1.35;;;16.00;99.90;;;;;;5037620;28;20042;-59
2022/08/31 02:31:51;;;;;;;3.90;1.40;;;16.00;99.90;;;;;;5019956;28;20029;-58
2022/08/31 02:34:18;;;;;;;4.30;1.15;;;16.00;99.90;;;;;;5020050;28;20038;-58
2022/08/31 02:36:45;;;;;;;3.42;1.17;;;16.00;99.90;;;;;;5037039;28;20022;-58
2022/08/31 02:39:12;;;;;;;7.00;1.45;;;16.00;99.90;;;;;;5037566;28;20045;-58
2022/08/31 02:41:40;;;;;;;3.72;1.35;;;16.00;99.90;;;;;;5036771;28;20042;-59
2022/08/31 02:44:08;;;;;;;3.65;1.60;;;15.90;99.90;;;;;;5037133;28;20061;-59
2022/08/31 02:46:35;;;;;;;3.25;1.25;;;15.90;99.90;;;;;;5037107;28;20065;-58
2022/08/31 02:49:02;;;;;;;5.75;1.63;;;15.90;99.90;;;;;;5036937;28;20042;-58
2022/08/31 02:51:29;;;;;;;7.78;1.30;;;15.90;99.90;;;;;;5020535;28;20036;-59
2022/08/31 02:53:55;;;;;;;3.72;1.50;;;15.90;99.90;;;;;;5037383;28;20052;-59
2022/08/31 02:56:22;;;;;;;5.10;1.40;;;15.90;99.90;;;;;;5036888;28;20041;-59
2022/08/31 02:58:53;;;;;;;4.28;1.55;;;15.80;99.90;;;;;;5037333;28;20045;-59
2022/08/31 03:01:21;;;;;;;4.28;1.55;;;15.80;99.90;;;;;;5033217;28;20480;-59
2022/08/31 03:03:48;;;;;;;5.78;2.25;;;15.80;99.90;;;;;;5019896;28;20041;-58
2022/08/31 03:06:16;;;;;;;4.65;1.50;;;15.80;99.90;;;;;;5019470;28;20045;-59
2022/08/31 03:08:43;;;;;;;9.23;1.40;;;15.80;99.90;;;;;;5037027;28;20062;-59
2022/08/31 03:11:10;;;;;;;3.03;1.17;;;15.70;99.90;;;;;;5035280;28;20076;-59
2022/08/31 03:13:37;;;;;;;6.60;1.80;;;15.70;99.90;;;;;;5018976;28;20053;-58
2022/08/31 03:16:04;;;;;;;12.40;1.63;;;15.70;99.90;;;;;;5019276;28;20417;-58
2022/08/31 03:18:32;;;;;;;9.07;1.50;;;15.70;99.90;;;;;;5036668;28;20051;-58
2022/08/31 03:20:59;;;;;;;5.38;1.30;;;15.70;99.90;;;;;;5036587;28;20030;-58
2022/08/31 03:23:26;;;;;;;3.95;1.70;;;15.70;99.90;;;;;;5019457;28;20037;-59
2022/08/31 03:25:53;;;;;;;4.43;1.30;;;15.70;99.90;;;;;;5036691;28;20065;-59
2022/08/31 03:28:19;;;;;;;3.28;2.00;;;15.70;99.90;;;;;;5018997;28;20046;-59
2022/08/31 03:30:46;;;;;;;3.15;1.40;;;15.70;99.90;;;;;;5036506;28;20030;-59
2022/08/31 03:33:13;;;;;;;3.90;1.45;;;15.70;99.90;;;;;;5019007;28;20114;-58
2022/08/31 03:35:43;;;;;;;4.40;1.30;;;15.70;99.90;;;;;;5036335;28;20029;-59
2022/08/31 03:38:11;;;;;;;6.93;1.33;;;15.70;99.90;;;;;;5019079;28;20050;-59
2022/08/31 03:40:42;;;;;;;5.63;1.60;;;15.70;99.90;;;;;;5036786;28;20054;-59
2022/08/31 03:43:10;;;;;;;6.85;1.67;;;15.60;99.90;;;;;;5018563;28;20056;-59
2022/08/31 03:45:40;;;;;;;5.25;1.30;;;15.60;99.90;;;;;;5018987;28;20061;-59
2022/08/31 03:48:07;;;;;;;3.90;1.38;;;15.60;99.90;;;;;;5018400;28;20064;-59
2022/08/31 03:50:38;;;;;;;3.47;1.48;;;15.60;99.90;;;;;;5019446;28;20037;-59
2022/08/31 03:53:06;;;;;;;8.48;1.65;;;15.60;99.90;;;;;;5035707;28;20042;-60
2022/08/31 03:55:34;;;;;;;4.97;1.40;;;15.60;99.90;;;;;;5019093;28;20077;-59
2022/08/31 03:58:01;;;;;;;4.35;1.48;;;15.60;99.90;;;;;;5035535;28;20307;-59
2022/08/31 04:00:30;;;;;;;4.10;1.23;;;15.60;99.90;;;;;;5035812;28;20049;-60
2022/08/31 04:02:58;;;;;;;3.60;1.30;;;15.60;99.90;;;;;;5017254;28;20046;-59
2022/08/31 04:05:30;;;;;;;9.77;1.48;;;15.50;99.90;;;;;;5016801;28;20034;-60
2022/08/31 04:07:57;;;;;;;7.10;1.63;;;15.50;99.90;;;;;;5019315;28;20069;-60
2022/08/31 04:10:24;;;;;;;2.88;1.15;;;15.50;99.90;;;;;;5036060;28;20030;-59
2022/08/31 04:12:51;;;;;;;4.82;1.60;;;15.60;99.90;;;;;;5019146;28;20050;-59
2022/08/31 04:15:18;;;;;;;4.53;1.48;;;15.60;99.90;;;;;;5035616;28;20073;-59
2022/08/31 04:17:45;;;;;;;6.32;1.35;;;15.60;99.90;;;;;;5036489;28;20056;-59
2022/08/31 04:20:12;;;;;;;4.05;1.35;;;15.60;99.90;;;;;;5035714;28;20054;-60
2022/08/31 04:22:39;;;;;;;3.80;1.30;;;15.70;99.90;;;;;;5035242;28;20025;-59
2022/08/31 04:25:07;;;;;;;10.82;2.20;;;15.80;99.90;;;;;;5018824;28;20058;-60
2022/08/31 04:27:34;;;;;;;5.05;1.13;;;15.80;99.90;;;;;;5018709;28;20049;-59
2022/08/31 04:30:02;;;;;;;9.88;1.70;;;15.80;99.90;;;;;;5035901;28;20057;-59
2022/08/31 04:32:29;;;;;;;3.38;1.30;;;15.80;99.90;;;;;;5035638;28;20046;-59
2022/08/31 04:34:56;;;;;;;3.88;1.50;;;15.80;99.90;;;;;;5035349;28;20040;-59
2022/08/31 04:37:22;;;;;;;5.03;1.30;;;15.90;99.90;;;;;;5035908;28;20050;-59
2022/08/31 04:39:49;;;;;;;3.60;1.23;;;15.90;99.90;;;;;;5018362;28;20029;-59
2022/08/31 04:42:18;;;;;;;3.90;1.55;;;15.90;99.90;;;;;;5035571;28;20038;-60
2022/08/31 04:44:45;;;;;;;3.85;1.25;;;15.80;99.90;;;;;;5035443;28;20054;-59
2022/08/31 04:47:11;;;;;;;4.72;1.48;;;15.80;99.90;;;;;;5017363;28;20045;-60
2022/08/31 04:49:38;;;;;;;6.38;1.42;;;15.80;99.90;;;;;;5018050;28;20042;-59
2022/08/31 04:52:05;;;;;;;6.97;1.42;;;15.80;99.90;;;;;;5035185;28;20060;-60
2022/08/31 04:54:32;;;;;;;5.15;1.35;;;15.80;99.90;;;;;;5035340;28;20041;-59
2022/08/31 04:56:59;;;;;;;12.02;2.13;;;15.70;99.90;;;;;;5035156;28;20048;-59
2022/08/31 04:59:26;;;;;;;4.00;1.45;;;15.70;99.90;;;;;;5035390;28;20773;-59
2022/08/31 05:01:54;;;;;;;3.75;1.20;;;15.70;99.90;;;;;;5035410;28;20056;-59
2022/08/31 05:04:24;;;;;;;4.47;1.40;;;15.70;99.90;;;;;;5035286;28;20030;-59
2022/08/31 05:06:51;;;;;;;4.43;1.40;;;15.70;99.90;;;;;;5034985;28;20120;-59
2022/08/31 05:09:20;;;;;;;2.97;1.27;;;15.70;99.90;;;;;;5035240;28;20060;-59
2022/08/31 05:11:49;;;;;;;6.03;1.35;;;15.70;99.90;;;;;;5035080;28;20026;-58
2022/08/31 05:14:16;;;;;;;6.90;1.20;;;15.70;99.90;;;;;;5019173;28;20038;-59
2022/08/31 05:16:43;;;;;;;4.18;1.58;;;15.60;99.90;;;;;;5018414;28;20038;-59
2022/08/31 05:19:10;;;;;;;7.45;1.20;;;15.60;99.90;;;;;;5035092;28;20050;-59
2022/08/31 05:21:38;;;;;;;3.85;1.90;;;15.60;99.90;;;;;;5034306;28;20057;-58
2022/08/31 05:24:08;;;;;;;6.93;1.67;;;15.60;99.90;;;;;;5035111;28;20062;-58
2022/08/31 05:26:39;;;;;;;7.43;1.50;;;15.70;99.90;;;;;;5034556;28;20061;-57
2022/08/31 05:29:08;;;;;;;8.55;2.78;;;15.70;99.90;;;;;;5034790;28;20038;-60
2022/08/31 05:31:36;;;;;;;7.68;1.60;;;15.70;99.90;;;;;;5017589;28;20030;-59
2022/08/31 05:34:03;;;;;;;7.32;1.80;;;15.70;99.90;;;;;;5035252;28;20037;-59
2022/08/31 05:36:30;;;;;;;9.30;1.73;;;15.70;99.90;;;;;;5006021;28;20034;-60
2022/08/31 05:38:58;;;;;;;7.65;1.88;;;15.70;99.90;;;;;;5022302;28;20069;-59
2022/08/31 05:41:27;;;;;;;3.13;1.30;;;15.70;99.90;;;;;;5021898;28;20061;-59
2022/08/31 05:43:54;;;;;;;4.88;1.75;;;15.70;99.90;;;;;;5037987;28;20064;-60
2022/08/31 05:46:21;;;;;;;23.42;4.15;;;15.70;99.90;;;;;;5021682;28;20033;-60
2022/08/31 05:48:47;;;;;;;27.23;4.20;;;15.70;99.90;;;;;;5021150;28;20038;-59
2022/08/31 05:51:16;;;;;;;2.85;1.00;;;15.70;99.90;;;;;;5038641;28;20050;-60
2022/08/31 05:53:43;;;;;;;3.88;1.45;;;15.70;99.90;;;;;;5038824;28;20054;-60
2022/08/31 05:56:12;;;;;;;9.82;1.67;;;15.80;99.90;;;;;;5038503;28;20042;-62
2022/08/31 05:58:40;;;;;;;9.48;1.98;;;15.80;99.90;;;;;;5020726;28;20093;-59
2022/08/31 06:01:32;;;;;;;5.70;1.42;;;15.90;99.90;;;;;;5021503;28;20084;-59
2022/08/31 06:03:59;;;;;;;8.07;1.75;;;16.00;99.90;;;;;;5020969;28;20050;-59
2022/08/31 06:06:26;;;;;;;3.80;1.42;;;16.10;99.90;;;;;;5037014;28;20049;-57
2022/08/31 06:08:53;;;;;;;8.48;1.88;;;16.10;99.90;;;;;;5020086;28;20054;-61
2022/08/31 06:11:21;;;;;;;12.10;3.40;;;16.10;99.90;;;;;;5019827;28;20037;-59
2022/08/31 06:13:49;;;;;;;3.67;1.50;;;16.10;99.90;;;;;;5020437;28;20077;-58
2022/08/31 06:16:17;;;;;;;8.32;2.22;;;16.10;99.90;;;;;;5037693;28;20044;-59
2022/08/31 06:18:50;;;;;;;7.35;1.50;;;16.10;99.90;;;;;;5036688;28;20046;-59
2022/08/31 06:21:22;;;;;;;4.95;1.50;;;16.10;99.90;;;;;;5018508;28;20030;-59
2022/08/31 06:23:50;;;;;;;6.03;1.77;;;16.20;99.90;;;;;;5036514;28;20044;-59
2022/08/31 06:26:18;;;;;;;10.80;1.70;;;16.20;99.90;;;;;;5020151;28;20046;-59
2022/08/31 06:28:46;;;;;;;7.20;1.67;;;16.30;99.90;;;;;;5020130;28;20025;-59
2022/08/31 06:31:15;;;;;;;3.58;1.10;;;16.30;99.90;;;;;;4993465;28;20110;-59
2022/08/31 06:33:42;;;;;;;8.02;1.77;;;16.30;99.90;;;;;;5036388;28;20057;-59
2022/08/31 06:36:13;;;;;;;9.50;2.20;;;16.40;99.90;;;;;;5019264;28;20050;-61
2022/08/31 06:38:40;;;;;;;5.72;1.80;;;16.40;99.90;;;;;;4988893;28;20038;-59
2022/08/31 06:41:15;;;;;;;9.07;1.70;;;16.50;99.90;;;;;;5033294;28;20042;-61
2022/08/31 06:43:42;;;;;;;6.82;1.10;;;16.50;99.90;;;;;;5018010;28;20037;-59
2022/08/31 06:46:09;;;;;;;4.82;1.70;;;16.60;99.90;;;;;;5035049;28;20437;-59
2022/08/31 06:48:36;;;;;;;11.15;2.22;;;16.70;99.90;;;;;;5018098;28;20052;-59
2022/08/31 06:51:05;;;;;;;3.72;2.03;;;16.70;99.90;;;;;;5036141;28;20042;-59
2022/08/31 06:53:36;;;;;;;5.18;1.60;;;16.70;99.90;;;;;;5019400;28;20033;-59
2022/08/31 06:56:07;;;;;;;8.07;2.05;;;16.70;99.90;;;;;;5018789;28;20042;-59
2022/08/31 06:58:47;;;;;;;4.80;1.50;;;16.80;99.90;;;;;;5006500;28;20073;-59
2022/08/31 07:01:27;;;;;;;8.35;2.17;;;16.90;99.90;;;;;;5018352;28;20046;-59
2022/08/31 07:04:04;;;;;;;6.90;1.83;;;17.00;99.90;;;;;;5033893;28;20033;-60
2022/08/31 07:06:36;;;;;;;8.77;2.60;;;17.00;99.90;;;;;;5017829;28;20064;-60
2022/08/31 07:09:05;;;;;;;8.13;1.55;;;17.00;99.90;;;;;;5020168;28;20065;-60
2022/08/31 07:11:37;;;;;;;7.20;1.90;;;17.10;99.90;;;;;;5017866;28;20045;-60
2022/08/31 07:14:11;;;;;;;7.32;1.80;;;17.10;99.90;;;;;;5032468;28;20069;-59
2022/08/31 07:16:38;;;;;;;5.88;2.10;;;17.20;99.90;;;;;;5018323;28;20057;-58
2022/08/31 07:19:05;;;;;;;10.15;2.30;;;17.20;99.90;;;;;;5018201;28;20048;-58
2022/08/31 07:21:39;;;;;;;8.60;1.83;;;17.30;99.90;;;;;;5035055;28;20069;-58
2022/08/31 07:24:05;;;;;;;11.15;1.52;;;17.30;99.90;;;;;;5012608;28;20050;-59
2022/08/31 07:26:37;;;;;;;7.35;1.98;;;17.40;99.90;;;;;;5002965;28;20056;-61
2022/08/31 07:29:05;;;;;;;8.35;2.03;;;17.40;99.90;;;;;;5036435;28;20046;-59
2022/08/31 07:31:43;;;;;;;9.10;1.17;;;17.50;99.90;;;;;;4683485;28;10000012;-59
2022/08/31 07:34:16;;;;;;;7.78;1.98;;;17.50;99.90;;;;;;5033369;28;20056;-60
2022/08/31 07:42:17;;;;;;;9.52;2.92;;;17.50;99.90;;;;;;5027049;28;20286;-60
2022/08/31 07:44:49;;;;;;;6.22;2.03;;;17.70;99.90;;;;;;5012721;28;20053;-59
2022/08/31 07:47:19;;;;;;;7.00;1.50;;;17.80;99.90;;;;;;5012962;28;20050;-59
2022/08/31 07:49:50;;;;;;;3.50;1.35;;;17.80;99.90;;;;;;5029979;28;20056;-59
2022/08/31 07:52:22;;;;;;;9.35;2.17;;;17.90;99.90;;;;;;5030454;28;20060;-60
2022/08/31 07:54:54;;;;;;;11.85;2.47;;;18.00;99.90;;;;;;4996581;28;20045;-60
2022/08/31 07:57:24;;;;;;;13.15;2.83;;;18.00;99.90;;;;;;5026935;28;20567;-59
2022/08/31 07:59:55;;;;;;;8.40;1.80;;;18.20;99.90;;;;;;5012040;28;20061;-58
2022/08/31 08:02:22;;;;;;;6.32;2.05;;;18.30;99.90;;;;;;5030014;28;20050;-59
2022/08/31 08:04:52;;;;;;;7.88;1.65;;;18.40;99.90;;;;;;5030988;28;20041;-60
2022/08/31 08:07:19;;;;;;;6.82;2.03;;;18.40;99.90;;;;;;5030160;28;20054;-59
2022/08/31 08:09:47;;;;;;;11.60;2.35;;;18.50;99.90;;;;;;5028523;28;20041;-59
2022/08/31 08:12:14;;;;;;;7.18;1.67;;;18.60;99.90;;;;;;5010545;28;20084;-60
2022/08/31 08:14:40;;;;;;;11.43;1.60;;;18.60;99.90;;;;;;4999987;28;20105;-59
2022/08/31 08:17:07;;;;;;;4.95;1.30;;;18.80;99.90;;;;;;5009792;28;20054;-59
2022/08/31 08:19:34;;;;;;;12.05;2.03;;;18.90;99.90;;;;;;5027376;28;20065;-59
2022/08/31 08:22:02;;;;;;;18.27;2.15;;;19.00;99.90;;;;;;5024245;28;20041;-59
2022/08/31 08:24:30;;;;;;;9.50;1.80;;;19.10;99.90;;;;;;5030963;28;20061;-60
2022/08/31 08:26:57;;;;;;;6.50;1.60;;;19.10;99.90;;;;;;5011885;28;20037;-57
2022/08/31 08:29:26;;;;;;;7.07;1.50;;;19.10;99.90;;;;;;4998054;28;20109;-59
2022/08/31 08:31:53;;;;;;;13.63;2.30;;;19.20;99.90;;;;;;5029223;28;20042;-59
2022/08/31 08:34:23;;;;;;;13.75;2.67;;;19.20;99.90;;;;;;5014441;28;20278;-58
2022/08/31 08:36:58;;;;;;;12.43;1.92;;;19.30;99.90;;;;;;5014387;28;20104;-59
2022/08/31 08:39:25;;;;;;;7.50;2.53;;;19.30;99.90;;;;;;5030761;28;20046;-60
2022/08/31 08:41:53;;;;;;;9.27;1.77;;;19.40;99.90;;;;;;5031289;28;20053;-60
2022/08/31 08:44:20;;;;;;;7.38;1.88;;;19.40;99.90;;;;;;5013405;28;20037;-60
2022/08/31 08:46:51;;;;;;;7.20;1.50;;;19.50;99.90;;;;;;5012947;28;20060;-59
2022/08/31 08:49:34;;;;;;;3.70;1.48;;;19.50;99.90;;;;;;4995687;28;20083;-60
2022/08/31 08:52:09;;;;;;;8.85;2.17;;;19.60;99.90;;;;;;5013395;28;20049;-60
2022/08/31 08:54:38;;;;;;;18.63;2.92;;;19.70;99.90;;;;;;5027674;28;20042;-59
2022/08/31 08:57:13;;;;;;;10.98;2.00;;;19.80;99.90;;;;;;4995709;28;20041;-59
2022/08/31 08:59:44;;;;;;;9.00;1.43;;;19.90;99.90;;;;;;5023353;28;20077;-59
2022/08/31 09:02:18;;;;;;;12.95;2.00;;;20.00;99.90;;;;;;5012163;28;20037;-60
2022/08/31 09:04:58;;;;;;;5.78;1.90;;;20.00;99.90;;;;;;4989282;28;20045;-59
2022/08/31 09:07:31;;;;;;;12.80;2.38;;;20.00;99.90;;;;;;5012388;28;20089;-60
2022/08/31 09:10:06;;;;;;;6.28;1.77;;;20.00;99.90;;;;;;5012976;28;20049;-60
2022/08/31 09:12:53;;;;;;;13.90;2.00;;;20.00;99.90;;;;;;5016996;28;20048;-59
2022/08/31 09:15:44;;;;;;;15.52;1.60;;;20.00;99.90;;;;;;5034181;28;20054;-60
2022/08/31 09:18:20;;;;;;;7.22;1.83;;;20.10;99.90;;;;;;4998029;28;20052;-60
2022/08/31 09:21:21;;;;;;;7.63;2.03;;;20.00;99.90;;;;;;5031267;28;20152;-59
2022/08/31 09:24:02;;;;;;;12.35;2.30;;;20.10;99.90;;;;;;4987920;28;20042;-60
2022/08/31 09:26:49;;;;;;;7.32;1.73;;;20.40;99.90;;;;;;5019207;28;20034;-60
2022/08/31 09:29:21;;;;;;;7.47;1.80;;;20.60;99.90;;;;;;5020001;28;20069;-59
2022/08/31 09:31:47;;;;;;;8.10;1.55;;;20.60;99.90;;;;;;5018978;28;20034;-59
2022/08/31 09:34:29;;;;;;;12.88;2.35;;;20.70;99.90;;;;;;5018678;28;20038;-58
2022/08/31 09:37:16;;;;;;;10.15;1.95;;;20.70;99.90;;;;;;5034973;28;20026;-60
2022/08/31 09:39:46;;;;;;;6.78;1.95;;;20.90;99.90;;;;;;5020867;28;20084;-61
2022/08/31 09:42:19;;;;;;;11.23;2.63;;;21.10;99.90;;;;;;5000686;28;20101;-60
2022/08/31 09:44:47;;;;;;;8.52;1.88;;;21.30;99.90;;;;;;4988620;28;20050;-61
2022/08/31 09:47:47;;;;;;;5.68;1.30;;;21.70;99.90;;;;;;4982612;28;20146;-60
2022/08/31 09:50:31;;;;;;;4.85;1.52;;;21.90;99.90;;;;;;5001562;28;20053;-60
2022/08/31 09:56:13;;;;;;;9.25;1.65;;;21.40;99.90;;;;;;5024374;28;20046;-61
2022/08/31 09:58:41;;;;;;;6.30;1.67;;;21.40;99.90;;;;;;5033715;28;20045;-60
2022/08/31 10:01:33;;;;;;;13.63;2.15;;;21.70;99.90;;;;;;5018480;28;20034;-62
2022/08/31 10:04:16;;;;;;;9.27;1.98;;;22.10;99.90;;;;;;5017597;28;20056;-60
2022/08/31 10:06:50;;;;;;;7.57;1.88;;;22.60;99.90;;;;;;5017044;28;20050;-60
2022/08/31 10:09:45;;;;;;;9.88;2.03;;;22.90;99.90;;;;;;5001755;28;20056;-61
2022/08/31 10:12:29;;;;;;;5.72;1.52;;;23.20;97.10;;;;;;5013874;28;20114;-61
2022/08/31 10:15:04;;;;;;;10.27;1.92;;;23.20;98.10;;;;;;5032092;28;20038;-60
2022/08/31 10:17:37;;;;;;;6.78;1.80;;;23.10;97.90;;;;;;5001148;28;20030;-60
2022/08/31 10:20:14;;;;;;;8.70;1.60;;;22.90;98.10;;;;;;5018179;28;20034;-58
2022/08/31 10:22:49;;;;;;;6.20;1.65;;;22.70;99.80;;;;;;5005038;28;20042;-59
2022/08/31 10:25:30;;;;;;;9.23;2.05;;;22.60;99.60;;;;;;5003889;28;20093;-59
2022/08/31 10:28:05;;;;;;;11.93;2.70;;;22.50;98.50;;;;;;5018890;28;20037;-60
2022/08/31 10:30:46;;;;;;;9.55;1.90;;;22.50;99.50;;;;;;5030811;28;20088;-60
2022/08/31 10:33:16;;;;;;;4.85;1.52;;;22.50;99.60;;;;;;5017180;28;20072;-60
2022/08/31 10:35:49;;;;;;;6.65;1.88;;;22.40;99.70;;;;;;5014263;28;20064;-59
2022/08/31 10:38:22;;;;;;;9.38;2.15;;;22.40;99.60;;;;;;5031038;28;20042;-59
2022/08/31 10:40:58;;;;;;;;;;;22.30;99.60;;;;;;5031320;28;20054;-60
2022/08/31 10:43:30;;;;;;;16.02;2.72;;;22.20;98.30;;;;;;5016952;28;19952;-60
2022/08/31 10:45:58;;;;;;;9.02;2.15;;;22.20;99.70;;;;;;4998372;28;20046;-59
2022/08/31 10:48:25;;;;;;;6.55;1.65;;;22.10;99.90;;;;;;5015330;28;20253;-60
2022/08/31 10:51:08;;;;;;;7.57;2.10;;;22.00;99.90;;;;;;5014262;28;20076;-61
2022/08/31 10:53:51;;;;;;;11.50;1.75;;;21.90;99.60;;;;;;5030322;28;20033;-60
2022/08/31 10:56:32;;;;;;;6.68;1.98;;;21.90;99.60;;;;;;5030892;28;20030;-61
2022/08/31 10:59:24;;;;;;;10.10;1.60;;;22.00;99.50;;;;;;4995519;28;20048;-61
2022/08/31 11:02:23;;;;;;;17.63;2.72;;;22.00;99.40;;;;;;5010075;28;20081;-60
2022/08/31 11:05:12;;;;;;;6.03;1.77;;;22.10;99.20;;;;;;5010862;28;20050;-61
2022/08/31 11:08:04;;;;;;;5.43;1.30;;;22.10;98.50;;;;;;5009864;28;20057;-61
2022/08/31 11:10:37;;;;;;;5.82;1.23;;;22.20;99.10;;;;;;5026890;28;20041;-61
2022/08/31 11:13:07;;;;;;;7.28;1.58;;;22.20;98.70;;;;;;5025744;28;20041;-60
2022/08/31 11:15:46;;;;;;;5.28;2.00;;;22.30;99.10;;;;;;5014289;28;20112;-60
2022/08/31 11:18:47;;;;;;;4.40;1.10;;;22.20;98.30;;;;;;5013360;28;20054;-61
2022/08/31 11:21:14;;;;;;;6.45;1.70;;;22.10;97.10;;;;;;4997438;28;20065;-59
2022/08/31 11:23:50;;;;;;;8.77;1.25;;;22.00;98.90;;;;;;5012536;28;20046;-60
2022/08/31 11:26:32;;;;;;;3.08;1.15;;;21.80;98.00;;;;;;5029327;28;20141;-60
2022/08/31 11:29:29;;;;;;;6.05;1.48;;;21.70;97.90;;;;;;5029907;28;20590;-60
2022/08/31 11:31:59;;;;;;;5.32;1.38;;;21.60;98.20;;;;;;5016643;28;20049;-60
2022/08/31 11:34:27;;;;;;;10.68;1.60;;;21.60;99.30;;;;;;5000773;28;20018;-60
2022/08/31 11:36:59;;;;;;;10.20;1.52;;;21.60;99.40;;;;;;5013821;28;20057;-61
2022/08/31 11:39:34;;;;;;;7.40;1.88;;;21.70;99.40;;;;;;5017259;28;20030;-60
2022/08/31 11:42:11;;;;;;;14.43;2.35;;;21.80;98.90;;;;;;5014922;28;20748;-60
2022/08/31 11:44:40;;;;;;;8.50;1.52;;;21.80;97.00;;;;;;5015909;28;20045;-61
2022/08/31 11:47:28;;;;;;;10.35;1.92;;;22.00;97.00;;;;;;5015648;28;20057;-59
2022/08/31 11:50:03;;;;;;;6.88;1.70;;;22.20;93.10;;;;;;5028363;28;20057;-61
2022/08/31 11:52:52;;;;;;;7.90;1.75;;;22.40;95.60;;;;;;5015635;28;20042;-59
2022/08/31 11:55:26;;;;;;;6.32;1.42;;;22.50;92.80;;;;;;5008879;28;20117;-59
2022/08/31 11:58:10;;;;;;;9.52;1.65;;;22.60;93.10;;;;;;5017485;28;20046;-60
2022/08/31 12:00:54;;;;;;;10.23;2.00;;;22.80;92.40;;;;;;5014555;28;20454;-59
2022/08/31 12:03:45;;;;;;;13.13;1.50;;;23.00;92.40;;;;;;4993755;28;20486;-57
2022/08/31 12:06:25;;;;;;;4.95;1.45;;;23.20;90.20;;;;;;5020633;28;20493;-59
2022/08/31 12:09:13;;;;;;;8.05;1.70;;;23.30;90.00;;;;;;5012640;28;20045;-58
2022/08/31 12:11:48;;;;;;;10.15;1.85;;;23.30;90.90;;;;;;4991805;28;20104;-59
2022/08/31 12:14:21;;;;;;;11.77;1.65;;;23.40;90.80;;;;;;5005238;28;20094;-58
2022/08/31 12:17:12;;;;;;;5.27;1.60;;;23.40;88.00;;;;;;4978179;28;20042;-59
2022/08/31 12:20:06;;;;;;;7.47;1.60;;;23.50;88.80;;;;;;4992594;28;20049;-59
2022/08/31 12:25:34;;;;;;;6.00;1.98;;;23.30;84.10;;;;;;5004829;28;20460;-58
2022/08/31 12:28:04;;;;;;;13.25;1.92;;;23.20;87.10;;;;;;5005880;28;20081;-58
2022/08/31 12:30:31;;;;;;;5.10;1.30;;;23.30;87.50;;;;;;4987283;28;20498;-59
2022/08/31 12:33:09;;;;;;;10.45;1.48;;;23.40;88.50;;;;;;5005997;28;20119;-59
2022/08/31 12:35:36;;;;;;;7.88;1.75;;;23.50;84.70;;;;;;4986419;28;20049;-58
2022/08/31 12:38:25;;;;;;;7.55;1.52;;;23.70;87.40;;;;;;5003642;28;20049;-59
2022/08/31 12:40:55;;;;;;;7.28;1.75;;;23.90;79.80;;;;;;4971212;28;20560;-59
2022/08/31 12:43:37;;;;;;;9.27;1.92;;;24.00;83.60;;;;;;4957424;28;20053;-59
2022/08/31 12:46:19;;;;;;;5.07;1.85;;;23.90;79.60;;;;;;4988436;28;20104;-60
2022/08/31 12:49:06;;;;;;;7.82;1.20;;;23.90;81.20;;;;;;5005787;28;20096;-59
2022/08/31 12:51:54;;;;;;;6.13;1.42;;;23.90;79.40;;;;;;4988519;28;20064;-58
2022/08/31 12:54:52;;;;;;;7.78;1.52;;;24.10;78.60;;;;;;4991644;28;20058;-58
2022/08/31 12:57:38;;;;;;;8.20;1.20;;;24.20;76.30;;;;;;5009819;28;21379;-59
2022/08/31 13:00:08;;;;;;;;;;;24.20;73.40;;;;;;4984520;28;20081;-59
2022/08/31 13:02:41;;;;;;;11.73;2.15;;;24.10;73.60;;;;;;5006951;28;19925;-59
2022/08/31 13:05:23;;;;;;;7.18;2.13;;;24.10;75.10;;;;;;4994455;28;20050;-59
2022/08/31 13:07:50;;;;;;;5.97;1.25;;;24.00;71.30;;;;;;5008458;28;20088;-59
2022/08/31 13:10:28;;;;;;;6.18;1.92;;;23.90;77.40;;;;;;5009743;28;20046;-59
2022/08/31 13:13:03;;;;;;;7.38;1.58;;;23.80;74.30;;;;;;5007489;28;20065;-59
2022/08/31 13:15:41;;;;;;;9.98;2.55;;;23.80;74.90;;;;;;4993627;28;20390;-58
2022/08/31 13:18:15;;;;;;;6.40;1.52;;;24.00;74.60;;;;;;4994501;28;20074;-58
2022/08/31 13:20:42;;;;;;;6.22;1.80;;;23.90;73.10;;;;;;4997283;28;20046;-59
2022/08/31 13:23:12;;;;;;;6.18;1.45;;;23.80;75.10;;;;;;4970062;28;20050;-59
2022/08/31 13:25:38;;;;;;;6.03;1.58;;;23.70;74.40;;;;;;5012909;28;20065;-59